Time;durP1;ratioP1;P1;durP2;ratioP2;P2;SDS_P1;SDS_P2;PMS_P1;PMS_P2;Temp;Humidity;BMP_temperature;BMP_pressure;BME280_temperature;BME280_humidity;BME280_pressure;Samples;Min_cycle;Max_cycle;Signal;HPM_P1;HPM_P2
2022/05/06 00:01:01;;;;;;;3.67;1.90;;;11.90;69.40;;;;;;5112654;28;20447;-72
2022/05/06 00:03:27;;;;;;;3.30;1.65;;;12.00;69.40;;;;;;5094318;28;20039;-72
2022/05/06 00:05:53;;;;;;;3.45;1.95;;;11.90;69.30;;;;;;5113237;28;20054;-72
2022/05/06 00:08:18;;;;;;;2.95;1.70;;;12.00;69.40;;;;;;5112559;28;20046;-72
2022/05/06 00:10:44;;;;;;;5.10;2.70;;;12.00;69.40;;;;;;5112668;28;20123;-72
2022/05/06 00:13:10;;;;;;;4.07;2.15;;;11.90;69.50;;;;;;5094293;28;20050;-72
2022/05/06 00:15:36;;;;;;;3.65;2.00;;;12.00;69.60;;;;;;5093455;28;20044;-72
2022/05/06 00:18:02;;;;;;;3.88;1.88;;;12.00;69.70;;;;;;5112317;28;20132;-72
2022/05/06 00:20:28;;;;;;;3.33;1.83;;;12.00;69.70;;;;;;5113076;28;20096;-72
2022/05/06 00:22:54;;;;;;;2.83;1.63;;;12.00;69.80;;;;;;5094085;28;20423;-72
2022/05/06 00:25:19;;;;;;;3.47;1.92;;;11.90;69.80;;;;;;5112269;28;20423;-72
2022/05/06 00:27:45;;;;;;;2.60;1.67;;;12.00;69.90;;;;;;5112435;28;20397;-73
2022/05/06 00:30:11;;;;;;;4.07;1.83;;;11.90;69.90;;;;;;5112079;28;20043;-72
2022/05/06 00:32:37;;;;;;;3.65;1.70;;;11.80;70.00;;;;;;5112209;28;20039;-72
2022/05/06 00:35:03;;;;;;;3.65;2.00;;;11.90;70.10;;;;;;5112125;28;20040;-72
2022/05/06 00:37:28;;;;;;;3.33;1.67;;;11.80;70.10;;;;;;5094130;28;20032;-73
2022/05/06 00:39:54;;;;;;;2.70;1.58;;;11.80;70.30;;;;;;5112435;28;20489;-72
2022/05/06 00:42:20;;;;;;;3.05;1.58;;;11.70;70.30;;;;;;5112514;28;20088;-72
2022/05/06 00:44:45;;;;;;;3.75;1.98;;;11.70;70.50;;;;;;5094530;28;20089;-72
2022/05/06 00:47:13;;;;;;;2.90;1.45;;;11.60;70.60;;;;;;5111836;28;20112;-72
2022/05/06 00:49:38;;;;;;;2.78;1.63;;;11.60;70.70;;;;;;5111833;28;20548;-72
2022/05/06 00:52:06;;;;;;;3.97;2.00;;;11.60;70.80;;;;;;5112408;28;20122;-72
2022/05/06 00:54:34;;;;;;;2.63;1.63;;;11.50;70.90;;;;;;5111851;28;20042;-72
2022/05/06 00:57:01;;;;;;;3.80;1.73;;;11.50;70.90;;;;;;5094541;28;20043;-73
2022/05/06 00:59:27;;;;;;;2.85;1.60;;;11.40;71.00;;;;;;5112152;28;20047;-73
2022/05/06 01:01:52;;;;;;;2.08;1.35;;;11.40;71.20;;;;;;5111904;28;20426;-72
2022/05/06 01:04:18;;;;;;;2.53;1.42;;;11.40;71.30;;;;;;5112063;28;20068;-72
2022/05/06 01:06:45;;;;;;;3.30;1.75;;;11.30;71.30;;;;;;5094135;28;20477;-72
2022/05/06 01:09:15;;;;;;;4.05;2.08;;;11.30;71.40;;;;;;5111719;28;20040;-72
2022/05/06 01:11:42;;;;;;;2.88;1.67;;;11.20;71.50;;;;;;5111656;28;20043;-72
2022/05/06 01:14:08;;;;;;;2.97;1.70;;;11.20;71.60;;;;;;5076633;28;20392;-72
2022/05/06 01:16:35;;;;;;;3.78;1.80;;;11.10;71.70;;;;;;5111565;28;20533;-72
2022/05/06 01:19:02;;;;;;;3.25;1.70;;;11.10;71.80;;;;;;5111447;28;20076;-71
2022/05/06 01:21:34;;;;;;;3.97;1.98;;;11.10;71.80;;;;;;5093436;28;20043;-72
2022/05/06 01:24:00;;;;;;;3.13;1.73;;;11.10;71.90;;;;;;5077349;28;20485;-72
2022/05/06 01:27:03;;;;;;;3.00;1.48;;;11.10;72.00;;;;;;5093303;28;20044;-72
2022/05/06 01:29:31;;;;;;;2.47;1.50;;;11.00;72.10;;;;;;5114229;28;20078;-71
2022/05/06 01:31:57;;;;;;;2.22;1.45;;;11.00;72.00;;;;;;5114937;28;20039;-72
2022/05/06 01:34:27;;;;;;;2.60;1.60;;;11.10;72.20;;;;;;5114878;28;20067;-71
2022/05/06 01:36:57;;;;;;;2.28;1.50;;;11.00;72.20;;;;;;5113563;28;20054;-71
2022/05/06 01:39:29;;;;;;;3.03;1.67;;;11.00;72.30;;;;;;5114779;28;20046;-71
2022/05/06 01:41:59;;;;;;;2.60;1.67;;;10.90;72.30;;;;;;5114578;28;20039;-72
2022/05/06 01:44:30;;;;;;;2.65;1.58;;;10.90;72.40;;;;;;5113478;28;20032;-71
2022/05/06 01:47:00;;;;;;;3.08;1.58;;;10.90;72.40;;;;;;5096356;28;20389;-72
2022/05/06 01:49:27;;;;;;;2.30;1.38;;;10.90;72.40;;;;;;5114647;28;20047;-72
2022/05/06 01:51:56;;;;;;;2.90;1.60;;;10.90;72.40;;;;;;5114640;28;20519;-71
2022/05/06 01:54:21;;;;;;;2.65;1.55;;;10.90;72.50;;;;;;5114472;28;20050;-71
2022/05/06 01:56:47;;;;;;;4.35;2.05;;;10.80;72.50;;;;;;5114591;28;20035;-71
2022/05/06 01:59:13;;;;;;;2.83;1.67;;;10.90;72.60;;;;;;5096322;28;20039;-71
2022/05/06 02:01:39;;;;;;;3.53;1.92;;;10.90;72.70;;;;;;5096378;28;20036;-71
2022/05/06 02:06:42;;;;;;;3.08;1.70;;;10.80;72.90;;;;;;5114519;28;20389;-71
2022/05/06 02:09:07;;;;;;;3.40;1.67;;;10.90;73.00;;;;;;5114285;28;20028;-71
2022/05/06 02:11:33;;;;;;;3.58;2.00;;;10.90;73.10;;;;;;5115067;28;20142;-71
2022/05/06 02:13:59;;;;;;;4.10;2.00;;;10.80;73.00;;;;;;5114398;28;20036;-71
2022/05/06 02:16:25;;;;;;;2.63;1.50;;;10.80;73.10;;;;;;5114827;28;20035;-71
2022/05/06 02:18:51;;;;;;;3.50;1.92;;;10.80;73.20;;;;;;5114640;28;20065;-71
2022/05/06 02:21:16;;;;;;;3.15;1.95;;;10.80;73.30;;;;;;5114869;28;20496;-71
2022/05/06 02:23:42;;;;;;;4.18;2.30;;;10.80;73.40;;;;;;5114164;28;20027;-71
2022/05/06 02:26:08;;;;;;;4.63;2.45;;;10.80;73.50;;;;;;5114368;28;20044;-71
2022/05/06 02:28:34;;;;;;;5.45;2.90;;;10.80;73.60;;;;;;5114627;28;21118;-71
2022/05/06 02:33:46;;;;;;;4.32;2.47;;;10.70;73.80;;;;;;5114183;28;20045;-71
2022/05/06 02:36:12;;;;;;;4.95;2.53;;;10.80;73.90;;;;;;5113925;28;20127;-71
2022/05/06 02:38:38;;;;;;;5.88;2.70;;;10.70;74.00;;;;;;5113797;28;20035;-71
2022/05/06 02:41:06;;;;;;;8.75;3.60;;;10.70;74.10;;;;;;5095787;28;20044;-71
2022/05/06 02:43:32;;;;;;;4.95;2.83;;;10.60;74.30;;;;;;5113966;28;20082;-71
2022/05/06 02:45:57;;;;;;;4.60;2.53;;;10.60;74.50;;;;;;5095996;28;20039;-71
2022/05/06 02:48:24;;;;;;;4.82;2.63;;;10.50;74.70;;;;;;5114139;28;20451;-71
2022/05/06 02:50:49;;;;;;;3.92;1.92;;;10.50;74.80;;;;;;5113774;28;20040;-73
2022/05/06 02:53:15;;;;;;;3.70;2.00;;;10.50;74.90;;;;;;5113972;28;20040;-73
2022/05/06 02:55:41;;;;;;;3.80;2.20;;;10.60;75.10;;;;;;5113771;28;20040;-73
2022/05/06 02:58:07;;;;;;;3.30;1.83;;;10.50;75.10;;;;;;5114413;28;20035;-73
2022/05/06 03:00:32;;;;;;;4.30;2.38;;;10.60;75.10;;;;;;5095212;28;20039;-71
2022/05/06 03:02:58;;;;;;;4.13;2.22;;;10.60;75.10;;;;;;5113746;28;20118;-73
2022/05/06 03:05:24;;;;;;;4.82;2.65;;;10.50;75.10;;;;;;5113653;28;20084;-71
2022/05/06 03:07:51;;;;;;;4.50;2.40;;;10.50;75.20;;;;;;5095250;28;20036;-71
2022/05/06 03:10:17;;;;;;;5.05;2.50;;;10.50;75.40;;;;;;5113609;28;20043;-71
2022/05/06 03:12:43;;;;;;;3.45;1.80;;;10.50;75.60;;;;;;5113769;28;20563;-71
2022/05/06 03:15:10;;;;;;;3.03;1.88;;;10.40;75.70;;;;;;5113361;28;20043;-71
2022/05/06 03:17:36;;;;;;;4.53;1.90;;;10.40;75.90;;;;;;5113393;28;20486;-71
2022/05/06 03:20:07;;;;;;;2.75;1.50;;;10.40;75.90;;;;;;5113368;28;20059;-71
2022/05/06 03:22:39;;;;;;;2.63;1.55;;;10.30;76.00;;;;;;5095029;28;20047;-71
2022/05/06 03:25:05;;;;;;;2.58;1.60;;;10.30;76.00;;;;;;5111735;28;20050;-71
2022/05/06 03:30:09;;;;;;;2.13;1.35;;;10.30;76.10;;;;;;5113271;28;20128;-71
2022/05/06 03:32:35;;;;;;;5.40;2.03;;;10.30;76.10;;;;;;5112972;28;20034;-71
2022/05/06 03:35:01;;;;;;;3.97;1.95;;;10.20;76.10;;;;;;5095038;28;20541;-71
2022/05/06 03:37:27;;;;;;;3.33;2.00;;;10.20;76.20;;;;;;5113199;28;20032;-71
2022/05/06 03:39:52;;;;;;;2.97;1.80;;;10.30;76.40;;;;;;5094694;28;20526;-71
2022/05/06 03:42:18;;;;;;;2.85;1.73;;;10.20;76.40;;;;;;5113272;28;20039;-71
2022/05/06 03:44:44;;;;;;;4.72;1.92;;;10.30;76.60;;;;;;5112807;28;20039;-71
2022/05/06 03:47:09;;;;;;;3.20;1.85;;;10.20;76.60;;;;;;5112932;28;20048;-71
2022/05/06 03:49:35;;;;;;;2.78;1.40;;;10.20;76.50;;;;;;5112789;28;20039;-71
2022/05/06 03:52:01;;;;;;;3.28;1.70;;;10.10;76.60;;;;;;5111496;28;20032;-71
2022/05/06 03:54:27;;;;;;;4.25;1.85;;;10.20;76.70;;;;;;5112708;28;20048;-71
2022/05/06 03:56:53;;;;;;;3.63;1.67;;;10.10;77.30;;;;;;5113346;28;20096;-71
2022/05/06 03:59:19;;;;;;;2.22;1.35;;;10.10;76.90;;;;;;5112714;28;20043;-71
2022/05/06 04:01:45;;;;;;;2.60;1.52;;;10.10;76.90;;;;;;5112728;28;20047;-71
2022/05/06 04:04:10;;;;;;;3.05;1.70;;;10.10;77.10;;;;;;5113022;28;20473;-71
2022/05/06 04:06:36;;;;;;;2.72;1.63;;;10.00;77.00;;;;;;5112794;28;20455;-71
2022/05/06 04:09:02;;;;;;;5.75;1.50;;;10.00;77.10;;;;;;5112705;28;20031;-71
2022/05/06 04:11:28;;;;;;;3.03;1.67;;;10.10;77.20;;;;;;5112846;28;20035;-71
2022/05/06 04:13:54;;;;;;;2.88;1.60;;;10.00;77.10;;;;;;5112797;28;20036;-71
2022/05/06 04:16:19;;;;;;;3.65;1.80;;;10.00;77.20;;;;;;5113190;28;20541;-71
2022/05/06 04:18:45;;;;;;;2.45;1.55;;;10.00;77.20;;;;;;5113137;28;20512;-71
2022/05/06 04:23:52;;;;;;;2.55;1.45;;;10.00;77.40;;;;;;5112661;28;20047;-71
2022/05/06 04:26:18;;;;;;;10.90;2.25;;;9.90;77.20;;;;;;5112742;28;20047;-71
2022/05/06 04:28:44;;;;;;;2.88;1.85;;;9.90;77.30;;;;;;5113125;28;20427;-71
2022/05/06 04:31:10;;;;;;;3.25;1.75;;;9.80;77.50;;;;;;5094341;28;20044;-73
2022/05/06 04:33:39;;;;;;;2.72;1.77;;;9.80;77.70;;;;;;5112481;28;20032;-71
2022/05/06 04:36:05;;;;;;;3.25;1.75;;;9.80;77.90;;;;;;5113040;28;20039;-71
2022/05/06 04:38:31;;;;;;;2.25;1.40;;;9.80;77.80;;;;;;5112673;28;20040;-72
2022/05/06 04:40:58;;;;;;;3.10;1.58;;;9.80;77.80;;;;;;5094547;28;20084;-71
2022/05/06 04:43:25;;;;;;;1.88;1.20;;;9.80;77.80;;;;;;5113251;28;20043;-72
2022/05/06 04:45:52;;;;;;;2.17;1.50;;;9.80;77.80;;;;;;5112604;28;20043;-72
2022/05/06 04:48:19;;;;;;;1.90;1.10;;;9.90;77.80;;;;;;5112429;28;20175;-72
2022/05/06 04:50:45;;;;;;;1.45;1.10;;;9.90;77.80;;;;;;5112459;28;20535;-72
2022/05/06 04:53:12;;;;;;;1.55;1.00;;;9.90;77.80;;;;;;5113103;28;20047;-72
2022/05/06 04:55:41;;;;;;;4.88;1.70;;;9.90;77.90;;;;;;5112459;28;20044;-72
2022/05/06 04:58:08;;;;;;;2.03;1.23;;;9.90;77.90;;;;;;5112367;28;20031;-72
2022/05/06 05:00:34;;;;;;;3.03;1.63;;;9.90;77.90;;;;;;5112851;28;20138;-72
2022/05/06 05:03:00;;;;;;;1.30;1.02;;;9.80;78.00;;;;;;5114163;28;20122;-72
2022/05/06 05:05:27;;;;;;;1.70;1.10;;;9.80;78.10;;;;;;5097641;28;20078;-72
2022/05/06 05:07:53;;;;;;;1.45;0.90;;;9.80;78.20;;;;;;5115699;28;20040;-72
2022/05/06 05:10:20;;;;;;;2.65;1.70;;;9.80;78.30;;;;;;5116241;28;20418;-72
2022/05/06 05:12:47;;;;;;;2.45;1.17;;;9.80;78.20;;;;;;5115622;28;20043;-72
2022/05/06 05:15:13;;;;;;;2.08;1.17;;;9.80;78.60;;;;;;5116038;28;20048;-72
2022/05/06 05:17:38;;;;;;;2.50;1.48;;;9.80;78.20;;;;;;5115709;28;20088;-72
2022/05/06 05:20:05;;;;;;;2.33;1.30;;;9.70;78.30;;;;;;5115472;28;20046;-72
2022/05/06 05:22:31;;;;;;;1.83;1.35;;;9.70;78.30;;;;;;5115474;28;20390;-72
2022/05/06 05:24:57;;;;;;;1.80;1.10;;;9.80;78.50;;;;;;5115820;28;20130;-72
2022/05/06 05:27:23;;;;;;;1.55;1.00;;;9.70;78.40;;;;;;5115437;28;20102;-72
2022/05/06 05:29:49;;;;;;;6.13;1.48;;;9.70;78.40;;;;;;5115504;28;20055;-72
2022/05/06 05:32:15;;;;;;;1.73;1.10;;;9.80;78.50;;;;;;5115903;28;20035;-72
2022/05/06 05:34:42;;;;;;;2.72;1.40;;;9.80;78.40;;;;;;5114960;28;20040;-72
2022/05/06 05:37:09;;;;;;;2.67;1.70;;;9.90;78.50;;;;;;5115155;28;20157;-72
2022/05/06 05:39:36;;;;;;;10.02;1.88;;;10.00;78.50;;;;;;5096900;28;20036;-72
2022/05/06 05:42:04;;;;;;;3.72;2.00;;;9.90;78.40;;;;;;5096945;28;20051;-72
2022/05/06 05:49:51;;;;;;;1.60;1.27;;;9.90;78.60;;;;;;5115014;28;20051;-72
2022/05/06 05:52:17;;;;;;;1.77;1.10;;;10.00;78.50;;;;;;5115185;28;20503;-72
2022/05/06 05:54:43;;;;;;;2.10;1.50;;;10.10;78.50;;;;;;5096589;28;20054;-71
2022/05/06 05:57:08;;;;;;;1.42;1.00;;;10.10;78.30;;;;;;5115408;28;20423;-72
2022/05/06 05:59:34;;;;;;;1.80;1.20;;;10.10;78.40;;;;;;5114826;28;20059;-71
2022/05/06 06:02:02;;;;;;;1.70;1.10;;;10.20;78.40;;;;;;5097227;28;20036;-72
2022/05/06 06:04:28;;;;;;;2.20;0.98;;;10.30;78.40;;;;;;5097092;28;20048;-72
2022/05/06 06:06:54;;;;;;;1.65;1.10;;;10.30;78.30;;;;;;5114910;28;20040;-71
2022/05/06 06:09:22;;;;;;;2.00;1.20;;;10.40;78.20;;;;;;5114660;28;20039;-72
2022/05/06 06:11:49;;;;;;;2.47;1.40;;;10.50;78.20;;;;;;5114956;28;20050;-72
2022/05/06 06:14:16;;;;;;;1.52;1.20;;;10.50;78.10;;;;;;5113933;28;20046;-72
2022/05/06 06:16:42;;;;;;;2.53;1.50;;;10.50;78.10;;;;;;5114479;28;20040;-72
2022/05/06 06:19:08;;;;;;;1.65;1.27;;;10.60;78.20;;;;;;5096752;28;20453;-71
2022/05/06 06:21:33;;;;;;;2.00;1.33;;;10.50;78.30;;;;;;5112463;28;20043;-71
2022/05/06 06:23:59;;;;;;;2.85;1.48;;;10.60;78.40;;;;;;5115005;28;20089;-72
2022/05/06 06:26:25;;;;;;;2.17;1.40;;;10.70;78.30;;;;;;5096389;28;20047;-71
2022/05/06 06:28:51;;;;;;;1.92;1.20;;;10.70;78.30;;;;;;5096310;28;20149;-72
2022/05/06 06:31:16;;;;;;;3.58;1.90;;;10.80;78.20;;;;;;5114448;28;20044;-71
2022/05/06 06:33:43;;;;;;;2.75;1.80;;;10.80;78.30;;;;;;5114685;28;20050;-71
2022/05/06 06:36:09;;;;;;;1.60;1.15;;;10.80;78.30;;;;;;5114606;28;20040;-71
2022/05/06 06:38:34;;;;;;;2.58;1.50;;;10.80;78.30;;;;;;5114701;28;20123;-71
2022/05/06 06:41:00;;;;;;;2.38;1.20;;;10.90;78.40;;;;;;5114826;28;20154;-72
2022/05/06 06:43:27;;;;;;;1.92;1.30;;;10.90;78.40;;;;;;5096133;28;20047;-72
2022/05/06 06:45:53;;;;;;;1.58;1.10;;;11.00;78.30;;;;;;5114596;28;20035;-72
2022/05/06 06:48:19;;;;;;;2.60;1.52;;;11.00;78.40;;;;;;5114138;28;20481;-72
2022/05/06 06:50:45;;;;;;;2.03;1.25;;;11.00;78.50;;;;;;5114051;28;20046;-72
2022/05/06 06:53:11;;;;;;;1.98;1.27;;;11.10;78.40;;;;;;5114464;28;20039;-72
2022/05/06 06:55:36;;;;;;;2.05;1.20;;;11.20;78.40;;;;;;5096205;28;20389;-72
2022/05/06 06:58:02;;;;;;;1.83;1.00;;;11.20;78.40;;;;;;5113936;28;20047;-71
2022/05/06 07:00:28;;;;;;;1.95;1.40;;;11.20;78.50;;;;;;5113909;28;20067;-72
2022/05/06 07:02:56;;;;;;;2.10;1.30;;;11.20;78.60;;;;;;5114183;28;20027;-72
2022/05/06 07:05:22;;;;;;;2.05;1.20;;;11.20;78.40;;;;;;5113842;28;20106;-71
2022/05/06 07:13:11;;;;;;;2.67;1.10;;;11.30;78.80;;;;;;5113991;28;20069;-72
2022/05/06 07:15:37;;;;;;;3.70;1.70;;;11.40;78.70;;;;;;5096397;28;20067;-72
2022/05/06 07:18:03;;;;;;;3.42;1.63;;;11.40;78.60;;;;;;5113761;28;20063;-72
2022/05/06 07:20:28;;;;;;;3.85;1.90;;;11.40;78.60;;;;;;5113731;28;20062;-72
2022/05/06 07:22:54;;;;;;;2.80;1.50;;;11.40;78.60;;;;;;5113670;28;20546;-72
2022/05/06 07:25:20;;;;;;;4.47;1.95;;;11.40;78.60;;;;;;5113295;28;20083;-72
2022/05/06 07:27:46;;;;;;;3.35;1.70;;;11.50;78.60;;;;;;5113587;28;20510;-72
2022/05/06 07:30:12;;;;;;;2.70;1.52;;;11.50;78.60;;;;;;5114044;28;20520;-71
2022/05/06 07:32:37;;;;;;;2.40;1.50;;;11.50;78.70;;;;;;5113501;28;20092;-72
2022/05/06 07:35:04;;;;;;;2.40;1.33;;;11.50;78.70;;;;;;5113741;28;20047;-72
2022/05/06 07:37:37;;;;;;;2.67;1.58;;;11.60;78.80;;;;;;5114042;28;20031;-72
2022/05/06 07:40:04;;;;;;;2.22;1.55;;;11.60;78.80;;;;;;5113814;28;20040;-71
2022/05/06 07:42:30;;;;;;;2.35;1.38;;;11.60;78.80;;;;;;5094903;28;20065;-72
2022/05/06 07:44:57;;;;;;;1.98;1.20;;;11.70;78.80;;;;;;5113809;28;20036;-72
2022/05/06 07:47:23;;;;;;;2.97;1.50;;;11.80;78.70;;;;;;5095289;28;20039;-72
2022/05/06 07:49:49;;;;;;;3.60;1.90;;;11.80;78.50;;;;;;5113115;28;20035;-72
2022/05/06 07:52:15;;;;;;;2.40;1.52;;;11.90;78.60;;;;;;5113197;28;20050;-72
2022/05/06 07:54:41;;;;;;;2.35;1.55;;;12.00;78.60;;;;;;5112890;28;20435;-71
2022/05/06 07:57:06;;;;;;;2.45;1.50;;;12.00;78.40;;;;;;5095059;28;20069;-72
2022/05/06 07:59:32;;;;;;;2.95;1.50;;;12.10;78.40;;;;;;5113686;28;20043;-74
2022/05/06 08:04:40;;;;;;;2.35;1.50;;;12.30;78.30;;;;;;5113151;28;20058;-73
2022/05/06 08:07:08;;;;;;;2.90;1.90;;;12.30;78.20;;;;;;5114138;28;20125;-73
2022/05/06 08:09:34;;;;;;;4.50;2.50;;;12.40;78.20;;;;;;5077904;28;20051;-73
2022/05/06 08:12:00;;;;;;;3.53;2.05;;;12.50;78.20;;;;;;5113191;28;20551;-73
2022/05/06 08:14:26;;;;;;;3.33;1.85;;;12.50;78.20;;;;;;5112673;28;20032;-73
2022/05/06 08:16:52;;;;;;;2.70;1.67;;;12.70;78.20;;;;;;5112558;28;20421;-74
2022/05/06 08:19:19;;;;;;;1.90;1.35;;;12.70;78.00;;;;;;5112914;28;20067;-74
2022/05/06 08:21:45;;;;;;;2.10;1.50;;;12.90;78.10;;;;;;5094611;28;20047;-73
2022/05/06 08:24:12;;;;;;;2.63;1.60;;;13.00;77.70;;;;;;5112734;28;20038;-74
2022/05/06 08:26:38;;;;;;;2.20;1.40;;;13.10;77.70;;;;;;5113304;28;20122;-74
2022/05/06 08:29:04;;;;;;;1.63;1.08;;;13.30;77.50;;;;;;5112400;28;20043;-73
2022/05/06 08:31:37;;;;;;;2.22;1.35;;;13.60;77.30;;;;;;5094932;28;20082;-73
2022/05/06 08:34:06;;;;;;;1.67;1.02;;;13.60;77.20;;;;;;5112946;28;20035;-74
2022/05/06 08:36:32;;;;;;;2.03;1.27;;;13.80;77.00;;;;;;5094737;28;20415;-73
2022/05/06 08:38:58;;;;;;;3.10;1.48;;;13.90;76.80;;;;;;5115825;28;20102;-73
2022/05/06 08:41:26;;;;;;;1.77;1.23;;;14.10;76.70;;;;;;5116032;28;20081;-73
2022/05/06 08:43:53;;;;;;;2.97;1.55;;;14.30;76.50;;;;;;5114680;28;20084;-74
2022/05/06 08:51:46;;;;;;;3.50;1.98;;;14.20;76.60;;;;;;5115976;28;20055;-74
2022/05/06 08:54:12;;;;;;;3.20;1.90;;;14.10;77.20;;;;;;5116491;28;20040;-73
2022/05/06 08:56:38;;;;;;;2.17;1.65;;;14.10;77.50;;;;;;5115603;28;20044;-74
2022/05/06 08:59:04;;;;;;;3.33;1.80;;;14.10;77.60;;;;;;5116262;28;20051;-74
2022/05/06 09:01:30;;;;;;;2.72;1.60;;;14.10;77.60;;;;;;5097677;28;20500;-73
2022/05/06 09:03:56;;;;;;;2.80;1.70;;;14.10;77.90;;;;;;5098115;28;20127;-74
2022/05/06 09:06:26;;;;;;;3.33;1.70;;;14.10;77.80;;;;;;5116391;28;20040;-74
2022/05/06 09:08:55;;;;;;;2.10;1.40;;;14.20;77.80;;;;;;5116359;28;20124;-74
2022/05/06 09:14:14;;;;;;;2.20;1.40;;;14.60;77.40;;;;;;5100217;28;20043;-74
2022/05/06 09:16:39;;;;;;;1.30;1.00;;;14.90;76.90;;;;;;5115456;28;20122;-74
2022/05/06 09:19:12;;;;;;;2.55;1.48;;;15.00;76.60;;;;;;5115712;28;20131;-74
2022/05/06 09:21:39;;;;;;;2.55;1.40;;;15.30;76.50;;;;;;5116182;28;20032;-73
2022/05/06 09:24:21;;;;;;;1.73;1.40;;;15.40;76.20;;;;;;5115497;28;20040;-74
2022/05/06 09:27:06;;;;;;;2.35;1.50;;;15.60;75.90;;;;;;5095937;28;20138;-74
2022/05/06 09:29:36;;;;;;;2.13;1.40;;;15.70;75.70;;;;;;5113942;28;20039;-73
2022/05/06 09:32:22;;;;;;;2.08;1.50;;;15.80;75.60;;;;;;5096884;28;20046;-73
2022/05/06 09:34:51;;;;;;;1.80;1.23;;;15.90;75.60;;;;;;5113762;28;20504;-74
2022/05/06 09:37:36;;;;;;;1.95;1.40;;;16.00;75.40;;;;;;5115117;28;20109;-74
2022/05/06 09:40:11;;;;;;;2.03;1.45;;;15.90;75.50;;;;;;5115262;28;20532;-74
2022/05/06 09:42:39;;;;;;;2.90;1.60;;;16.10;75.70;;;;;;5114874;28;20039;-74
2022/05/06 09:45:06;;;;;;;1.48;1.00;;;16.10;75.60;;;;;;5115247;28;20040;-74
2022/05/06 09:47:33;;;;;;;1.65;1.30;;;16.30;75.50;;;;;;5115695;28;20047;-73
2022/05/06 09:50:00;;;;;;;1.67;1.20;;;16.60;75.10;;;;;;5096535;28;20084;-71
2022/05/06 09:52:25;;;;;;;1.45;1.10;;;16.80;74.60;;;;;;5114767;28;20431;-72
2022/05/06 09:54:53;;;;;;;1.90;1.33;;;16.90;74.40;;;;;;5115015;28;20040;-74
2022/05/06 09:57:19;;;;;;;2.08;1.52;;;17.10;74.10;;;;;;5115140;28;20044;-73
2022/05/06 09:59:46;;;;;;;1.48;1.15;;;17.10;74.10;;;;;;5114962;28;20047;-73
2022/05/06 10:02:12;;;;;;;1.33;1.10;;;17.20;74.10;;;;;;5096296;28;20039;-71
2022/05/06 10:04:39;;;;;;;2.00;1.42;;;17.40;73.90;;;;;;5114761;28;20491;-70
2022/05/06 10:07:11;;;;;;;1.90;1.30;;;17.50;73.40;;;;;;5115273;28;20039;-70
2022/05/06 10:09:56;;;;;;;1.20;1.10;;;17.60;73.20;;;;;;5095362;28;20452;-71
2022/05/06 10:12:23;;;;;;;1.63;1.30;;;17.60;73.20;;;;;;5113449;28;20493;-70
2022/05/06 10:14:50;;;;;;;2.58;1.50;;;17.90;73.10;;;;;;5114853;28;20040;-72
2022/05/06 10:17:47;;;;;;;1.35;1.00;;;17.90;72.80;;;;;;5079467;28;20535;-71
2022/05/06 10:20:52;;;;;;;1.40;1.10;;;18.00;72.90;;;;;;5114289;28;20040;-71
2022/05/06 10:23:18;;;;;;;1.58;1.23;;;18.10;72.70;;;;;;5114982;28;20036;-71
2022/05/06 10:25:49;;;;;;;1.27;0.90;;;18.30;72.50;;;;;;5115244;28;20114;-71
2022/05/06 10:34:23;;;;;;;1.25;0.80;;;18.60;72.00;;;;;;5097110;28;20504;-71
2022/05/06 10:36:51;;;;;;;1.10;1.00;;;18.70;71.70;;;;;;5095947;28;20044;-72
2022/05/06 10:39:36;;;;;;;1.20;0.90;;;18.80;71.40;;;;;;5114340;28;20504;-72
2022/05/06 10:42:06;;;;;;;0.77;0.68;;;18.90;71.00;;;;;;5114610;28;20077;-72
2022/05/06 10:44:43;;;;;;;1.38;1.00;;;19.00;70.80;;;;;;5114525;28;20063;-72
2022/05/06 10:47:47;;;;;;;1.20;0.80;;;19.00;70.60;;;;;;5095615;28;20405;-72
2022/05/06 10:50:14;;;;;;;1.58;0.98;;;19.10;70.40;;;;;;5101789;28;20096;-72
2022/05/06 10:52:40;;;;;;;1.65;1.23;;;19.00;70.30;;;;;;5079380;28;20080;-72
2022/05/06 10:55:06;;;;;;;1.00;0.90;;;19.10;70.30;;;;;;5095897;28;20059;-72
2022/05/06 10:57:45;;;;;;;1.52;1.05;;;19.10;70.10;;;;;;5095931;28;20489;-72
2022/05/06 11:00:12;;;;;;;2.05;1.30;;;19.20;70.00;;;;;;5112662;28;20132;-72
2022/05/06 11:02:39;;;;;;;1.02;1.00;;;19.20;69.50;;;;;;5095721;28;20040;-73
2022/05/06 11:05:07;;;;;;;1.55;1.10;;;19.20;70.20;;;;;;5078810;28;20050;-73
2022/05/06 11:07:34;;;;;;;1.30;1.02;;;19.20;69.60;;;;;;5113794;28;20044;-73
2022/05/06 11:10:09;;;;;;;1.15;1.00;;;19.30;69.50;;;;;;5095385;28;20039;-73
2022/05/06 11:12:38;;;;;;;0.93;0.82;;;19.30;69.10;;;;;;5113970;28;20069;-73
2022/05/06 11:15:10;;;;;;;0.73;0.73;;;19.40;68.90;;;;;;5113897;28;20481;-72
2022/05/06 11:17:36;;;;;;;0.63;0.63;;;19.50;68.70;;;;;;5113626;28;20039;-73
2022/05/06 11:20:23;;;;;;;1.05;0.90;;;19.60;68.60;;;;;;5114147;28;20040;-73
2022/05/06 11:22:53;;;;;;;1.42;1.00;;;19.70;68.20;;;;;;5113074;28;20069;-73
2022/05/06 11:25:21;;;;;;;1.35;1.08;;;19.80;67.90;;;;;;5113596;28;20048;-73
2022/05/06 11:27:48;;;;;;;1.48;1.08;;;19.90;67.70;;;;;;5095429;28;20392;-73
2022/05/06 11:30:17;;;;;;;1.40;1.13;;;19.90;67.60;;;;;;5095075;28;20047;-73
2022/05/06 11:32:49;;;;;;;1.25;1.00;;;19.80;67.40;;;;;;5113941;28;20476;-73
2022/05/06 11:35:20;;;;;;;1.05;0.95;;;19.80;67.60;;;;;;5112001;28;20039;-73
2022/05/06 11:37:47;;;;;;;1.10;1.00;;;19.80;67.60;;;;;;5113360;28;20115;-73
2022/05/06 11:40:34;;;;;;;1.33;1.15;;;19.90;67.40;;;;;;5113365;28;20480;-73
2022/05/06 11:43:01;;;;;;;1.10;1.00;;;19.90;67.20;;;;;;5094267;28;20401;-73
2022/05/06 11:48:14;;;;;;;0.57;0.57;;;20.00;66.90;;;;;;5113047;28;20405;-73
2022/05/06 11:50:41;;;;;;;0.75;0.68;;;20.20;66.80;;;;;;5095286;28;20047;-73
2022/05/06 11:53:09;;;;;;;0.65;0.65;;;20.20;66.60;;;;;;5113556;28;20059;-73
2022/05/06 11:55:37;;;;;;;1.38;0.98;;;20.30;66.30;;;;;;5112745;28;20047;-72
2022/05/06 11:58:07;;;;;;;1.42;1.10;;;20.30;65.90;;;;;;5113529;28;20036;-73
2022/05/06 12:00:33;;;;;;;0.98;0.90;;;20.30;65.80;;;;;;5069981;28;20074;-74
2022/05/06 12:03:04;;;;;;;0.85;0.82;;;20.20;66.00;;;;;;5053555;28;20041;-73
2022/05/06 12:05:30;;;;;;;;;;;20.10;65.90;;;;;;5068867;28;20403;-73
2022/05/06 12:07:56;;;;;;;0.60;0.60;;;20.20;66.00;;;;;;5070577;28;19986;-73
2022/05/06 12:10:38;;;;;;;1.15;1.00;;;20.30;65.90;;;;;;5070074;28;20541;-74
2022/05/06 12:13:07;;;;;;;1.70;1.13;;;20.20;65.70;;;;;;5051842;28;20062;-73
2022/05/06 12:15:37;;;;;;;0.60;0.60;;;20.20;65.80;;;;;;5053162;28;20137;-73
2022/05/06 12:18:09;;;;;;;1.08;0.82;;;20.20;65.60;;;;;;5070146;28;20041;-72
2022/05/06 12:20:37;;;;;;;1.13;0.90;;;20.20;65.60;;;;;;5069989;28;20032;-73
2022/05/06 12:23:04;;;;;;;0.70;0.70;;;20.20;65.70;;;;;;5070732;28;20040;-72
2022/05/06 12:25:30;;;;;;;0.63;0.55;;;20.20;65.50;;;;;;5070224;28;20036;-72
2022/05/06 12:28:15;;;;;;;0.90;0.70;;;20.20;65.40;;;;;;5069985;28;20094;-71
2022/05/06 12:30:44;;;;;;;1.45;1.10;;;20.20;65.40;;;;;;5076645;28;20044;-72
2022/05/06 12:33:13;;;;;;;1.98;1.27;;;20.20;65.10;;;;;;5094418;28;20032;-73
2022/05/06 12:35:56;;;;;;;1.10;1.00;;;20.20;64.80;;;;;;5113163;28;20048;-72
2022/05/06 12:38:44;;;;;;;0.90;0.90;;;20.20;64.90;;;;;;5111463;28;20027;-70
2022/05/06 12:41:26;;;;;;;1.77;1.08;;;20.30;64.80;;;;;;5112176;28;20035;-73
2022/05/06 12:43:54;;;;;;;1.50;1.13;;;20.40;64.70;;;;;;5112394;28;20116;-74
2022/05/06 12:46:29;;;;;;;1.35;1.20;;;20.50;64.50;;;;;;5113102;28;20043;-73
2022/05/06 12:51:41;;;;;;;2.42;1.40;;;20.50;64.10;;;;;;5112457;28;20401;-71
2022/05/06 12:54:07;;;;;;;3.03;1.70;;;20.50;64.00;;;;;;5113170;28;20116;-73
2022/05/06 12:56:34;;;;;;;2.10;1.58;;;20.50;63.80;;;;;;5111030;28;20055;-70
2022/05/06 12:59:00;;;;;;;1.50;1.25;;;20.50;63.70;;;;;;5112279;28;20444;-70
2022/05/06 13:01:25;;;;;;;1.40;1.20;;;20.50;63.80;;;;;;5112590;28;20070;-70
2022/05/06 13:03:51;;;;;;;2.50;1.30;;;20.50;63.80;;;;;;5094628;28;20461;-71
2022/05/06 13:06:17;;;;;;;1.60;1.00;;;20.60;63.60;;;;;;5112546;28;20047;-71
2022/05/06 13:08:42;;;;;;;1.77;1.00;;;20.50;63.50;;;;;;5094546;28;20032;-73
2022/05/06 13:11:08;;;;;;;1.48;1.15;;;20.60;63.60;;;;;;5112853;28;20094;-71
2022/05/06 13:13:34;;;;;;;1.88;1.10;;;20.60;63.40;;;;;;5112213;28;20043;-70
2022/05/06 13:16:00;;;;;;;2.97;1.90;;;20.60;63.40;;;;;;5112400;28;20046;-70
2022/05/06 13:18:26;;;;;;;2.50;1.58;;;20.50;63.10;;;;;;5111839;28;20032;-70
2022/05/06 13:20:52;;;;;;;3.38;1.55;;;20.50;63.40;;;;;;5111730;28;20036;-71
2022/05/06 13:23:17;;;;;;;1.38;1.10;;;20.50;63.40;;;;;;5112641;28;20040;-70
2022/05/06 13:25:44;;;;;;;1.98;1.30;;;20.50;63.30;;;;;;5096950;28;20073;-70
2022/05/06 13:28:10;;;;;;;1.23;1.02;;;20.50;63.20;;;;;;5080816;28;20047;-72
2022/05/06 13:30:35;;;;;;;2.13;1.00;;;20.50;63.20;;;;;;5115378;28;20044;-72
2022/05/06 13:33:01;;;;;;;1.05;0.80;;;20.50;63.10;;;;;;5115326;28;20039;-72
2022/05/06 13:35:28;;;;;;;1.20;0.93;;;20.50;63.20;;;;;;5115682;28;20071;-71